createdAt,value
2022-09-12T00:02:05.473Z,1.10
2022-09-12T00:05:07.991Z,1.33
2022-09-12T00:08:10.960Z,1.50
2022-09-12T00:11:14.059Z,1.40
2022-09-12T00:14:18.362Z,1.58
2022-09-12T00:17:20.691Z,1.40
2022-09-12T00:20:23.035Z,1.20
2022-09-12T00:23:25.335Z,1.30
2022-09-12T00:26:27.808Z,1.35
2022-09-12T00:29:30.943Z,1.33
2022-09-12T00:32:34.235Z,1.42
2022-09-12T00:35:49.770Z,1.63
2022-09-12T00:38:53.514Z,1.27
2022-09-12T00:41:55.998Z,1.70
2022-09-12T00:44:58.409Z,1.70
2022-09-12T00:48:04.074Z,1.83
2022-09-12T00:51:06.772Z,1.90
2022-09-12T00:54:14.726Z,1.80
2022-09-12T00:57:18.259Z,1.60
2022-09-12T01:00:23.104Z,1.75
2022-09-12T01:03:26.454Z,1.80
2022-09-12T01:06:35.441Z,1.90
2022-09-12T01:09:39.659Z,1.87
2022-09-12T01:12:43.693Z,1.70
2022-09-12T01:15:46.858Z,1.85
2022-09-12T01:19:02.401Z,1.90
2022-09-12T01:22:26.596Z,1.90
2022-09-12T01:25:39.093Z,1.70
2022-09-12T01:29:00.146Z,2.00
2022-09-12T01:32:10.475Z,2.03
2022-09-12T01:35:25.067Z,1.98
2022-09-12T01:38:43.482Z,2.27
2022-09-12T01:42:01.001Z,2.40
2022-09-12T01:45:12.602Z,2.38
2022-09-12T01:48:46.667Z,2.17
2022-09-12T01:51:59.120Z,2.55
2022-09-12T01:55:14.958Z,2.43
2022-09-12T01:58:39.582Z,2.67
2022-09-12T02:01:58.081Z,2.78
2022-09-12T02:05:10.746Z,2.70
2022-09-12T02:08:18.047Z,2.72
2022-09-12T02:11:21.325Z,2.83
2022-09-12T02:14:40.917Z,2.47
2022-09-12T02:17:45.632Z,2.90
2022-09-12T02:20:50.662Z,3.05
2022-09-12T02:23:58.055Z,3.20
2022-09-12T02:27:05.586Z,2.97
2022-09-12T02:30:09.316Z,3.17
2022-09-12T02:33:27.650Z,3.40
2022-09-12T02:36:50.172Z,3.13
2022-09-12T02:39:55.184Z,3.67
2022-09-12T02:42:58.080Z,4.20
2022-09-12T02:46:00.546Z,4.37
2022-09-12T02:49:03.748Z,4.05
2022-09-12T02:52:06.760Z,3.90
2022-09-12T02:55:11.683Z,4.32
2022-09-12T02:58:18.177Z,4.23
2022-09-12T03:01:35.425Z,4.30
2022-09-12T03:04:59.559Z,4.50
2022-09-12T03:08:40.769Z,4.35
2022-09-12T03:12:02.252Z,4.53
2022-09-12T03:15:09.336Z,4.53
2022-09-12T03:18:52.968Z,4.97
2022-09-12T03:22:03.764Z,4.80
2022-09-12T03:25:18.160Z,5.13
2022-09-12T03:28:23.653Z,5.20
2022-09-12T03:31:26.076Z,5.50
2022-09-12T03:34:28.789Z,5.60
2022-09-12T03:37:31.217Z,5.75
2022-09-12T03:40:38.141Z,5.47
2022-09-12T03:43:40.601Z,6.32
2022-09-12T03:46:43.100Z,6.33
2022-09-12T03:49:46.762Z,6.37
2022-09-12T03:52:49.168Z,6.05
2022-09-12T03:55:51.628Z,6.20
2022-09-12T03:58:54.021Z,6.57
2022-09-12T04:01:56.468Z,6.93
2022-09-12T04:04:58.774Z,7.13
2022-09-12T04:08:01.219Z,7.13
2022-09-12T04:11:09.985Z,7.35
2022-09-12T04:14:12.313Z,7.22
2022-09-12T04:17:15.097Z,7.83
2022-09-12T04:20:17.582Z,8.43
2022-09-12T04:23:20.194Z,8.32
2022-09-12T04:26:23.140Z,8.68
2022-09-12T04:29:25.595Z,7.88
2022-09-12T04:32:31.086Z,7.67
2022-09-12T04:35:35.621Z,9.23
2022-09-12T04:38:39.040Z,9.07
2022-09-12T04:41:44.162Z,10.82
2022-09-12T04:44:46.711Z,11.98
2022-09-12T04:47:49.459Z,11.73
2022-09-12T04:50:51.840Z,11.47
2022-09-12T04:53:57.662Z,9.75
2022-09-12T04:57:00.121Z,8.30
2022-09-12T05:00:07.318Z,8.73
2022-09-12T05:03:09.872Z,8.97
2022-09-12T05:06:15.759Z,10.13
2022-09-12T05:09:18.133Z,8.63
2022-09-12T05:12:20.802Z,8.50
2022-09-12T05:15:25.003Z,8.85
2022-09-12T05:18:28.092Z,8.87
2022-09-12T05:21:32.071Z,8.13
2022-09-12T05:24:35.294Z,8.15
2022-09-12T05:27:37.729Z,8.50
2022-09-12T05:30:40.144Z,8.55
2022-09-12T05:33:45.682Z,8.47
2022-09-12T05:36:49.090Z,7.93
2022-09-12T05:39:52.955Z,8.02
2022-09-12T05:42:55.399Z,8.30
2022-09-12T05:46:02.449Z,7.85
2022-09-12T05:49:12.956Z,7.43
2022-09-12T05:52:16.236Z,7.63
2022-09-12T05:55:18.629Z,7.88
2022-09-12T05:58:21.319Z,7.95
2022-09-12T06:01:24.723Z,7.72
2022-09-12T06:04:28.061Z,7.10
2022-09-12T06:07:31.993Z,7.70
2022-09-12T06:10:35.321Z,7.28
2022-09-12T06:13:40.125Z,6.95
2022-09-12T06:16:42.985Z,6.80
2022-09-12T06:19:45.678Z,6.73
2022-09-12T06:22:48.176Z,6.30
2022-09-12T06:25:50.652Z,7.20
2022-09-12T06:28:55.020Z,6.97
2022-09-12T06:31:57.388Z,6.65
2022-09-12T06:34:59.938Z,7.60
2022-09-12T06:38:02.345Z,7.03
2022-09-12T06:41:07.204Z,6.78
2022-09-12T06:44:13.345Z,5.53
2022-09-12T06:47:15.995Z,5.32
2022-09-12T06:50:18.731Z,5.53
2022-09-12T06:53:21.616Z,5.67
2022-09-12T06:56:26.542Z,4.85
2022-09-12T06:59:28.983Z,4.82
2022-09-12T07:02:31.650Z,4.97
2022-09-12T07:05:34.401Z,4.77
2022-09-12T07:08:37.880Z,4.30
2022-09-12T07:11:41.975Z,4.45
2022-09-12T07:14:44.348Z,4.07
2022-09-12T07:17:46.672Z,4.30
2022-09-12T07:20:49.246Z,4.30
2022-09-12T07:23:52.212Z,4.43
2022-09-12T07:26:54.603Z,4.00
2022-09-12T07:29:57.247Z,3.50
2022-09-12T07:32:59.685Z,3.67
2022-09-12T07:36:11.638Z,4.03
2022-09-12T07:39:14.322Z,3.90
2022-09-12T07:42:16.885Z,3.92
2022-09-12T07:45:19.304Z,3.90
2022-09-12T07:48:21.688Z,3.72
2022-09-12T07:51:25.873Z,3.65
2022-09-12T07:54:28.339Z,3.50
2022-09-12T07:57:31.084Z,3.85
2022-09-12T08:00:42.155Z,3.38
2022-09-12T08:03:47.653Z,3.33
2022-09-12T08:06:50.119Z,3.33
2022-09-12T08:09:53.744Z,3.27
2022-09-12T08:12:56.234Z,3.30
2022-09-12T08:16:04.239Z,3.22
2022-09-12T08:19:06.917Z,3.40
2022-09-12T08:22:09.848Z,3.35
2022-09-12T08:25:12.281Z,3.57
2022-09-12T08:28:14.727Z,3.78
2022-09-12T08:31:19.542Z,3.80
2022-09-12T08:34:22.395Z,3.63
2022-09-12T08:37:24.787Z,3.67
2022-09-12T08:40:27.230Z,3.50
2022-09-12T08:43:52.072Z,3.72
2022-09-12T08:47:15.593Z,3.70
2022-09-12T08:50:20.918Z,3.45
2022-09-12T08:53:25.659Z,4.20
2022-09-12T08:56:32.852Z,3.43
2022-09-12T08:59:41.747Z,4.00
2022-09-12T09:02:49.903Z,3.70
2022-09-12T09:06:24.283Z,3.90
2022-09-12T09:09:39.661Z,3.67
2022-09-12T09:12:54.168Z,3.67
2022-09-12T09:16:08.675Z,3.53
2022-09-12T09:19:17.430Z,3.45
2022-09-12T09:22:29.005Z,3.45
2022-09-12T09:25:51.900Z,3.72
2022-09-12T09:29:02.196Z,3.50
2022-09-12T09:32:14.334Z,3.03
2022-09-12T09:35:47.513Z,3.40
2022-09-12T09:38:59.530Z,3.58
2022-09-12T09:42:10.972Z,3.67
2022-09-12T09:45:24.888Z,3.53
2022-09-12T09:48:33.766Z,3.40
2022-09-12T09:51:39.351Z,3.20
2022-09-12T09:54:50.423Z,3.60
2022-09-12T09:57:53.350Z,3.60
2022-09-12T10:01:05.728Z,3.20
2022-09-12T10:04:20.892Z,3.28
2022-09-12T10:07:24.604Z,3.13
2022-09-12T10:10:27.038Z,2.90
2022-09-12T10:13:57.049Z,3.17
2022-09-12T10:16:59.590Z,2.67
2022-09-12T10:20:21.487Z,2.63
2022-09-12T10:23:36.121Z,2.97
2022-09-12T10:26:40.568Z,2.70
2022-09-12T10:29:48.413Z,2.88
2022-09-12T10:32:51.478Z,2.57
2022-09-12T10:35:55.485Z,2.72
2022-09-12T10:39:01.668Z,3.28
2022-09-12T10:42:05.537Z,2.65
2022-09-12T10:45:21.055Z,3.28
2022-09-12T10:48:31.761Z,2.57
2022-09-12T10:51:34.211Z,2.50
2022-09-12T10:54:36.605Z,2.95
2022-09-12T10:57:59.198Z,2.83
2022-09-12T11:01:29.754Z,3.17
2022-09-12T11:04:39.463Z,2.93
2022-09-12T11:08:01.683Z,2.70
2022-09-12T11:11:23.334Z,3.10
2022-09-12T11:14:44.238Z,2.80
2022-09-12T11:18:05.520Z,2.83
2022-09-12T11:21:45.161Z,2.53
2022-09-12T11:25:25.502Z,2.30
2022-09-12T11:28:47.150Z,3.10
2022-09-12T11:32:07.787Z,2.60
2022-09-12T11:35:17.628Z,2.78
2022-09-12T11:38:44.560Z,2.93
2022-09-12T11:41:56.928Z,2.67
2022-09-12T11:45:19.260Z,2.17
2022-09-12T11:48:35.377Z,2.20
2022-09-12T11:51:56.273Z,2.60
2022-09-12T11:55:15.828Z,2.03
2022-09-12T11:58:22.444Z,2.78
2022-09-12T12:01:41.296Z,2.33
2022-09-12T12:05:02.050Z,2.13
2022-09-12T12:08:06.346Z,2.00
2022-09-12T12:11:10.341Z,2.73
2022-09-12T12:14:19.988Z,2.00
2022-09-12T12:17:24.367Z,2.17
2022-09-12T12:20:28.703Z,2.10
2022-09-12T12:23:35.416Z,1.80
2022-09-12T12:26:40.790Z,1.70
2022-09-12T12:29:46.175Z,2.45
2022-09-12T12:32:48.659Z,1.80
2022-09-12T12:35:59.980Z,2.40
2022-09-12T12:39:48.121Z,1.50
2022-09-12T12:42:56.606Z,1.70
2022-09-12T12:46:02.344Z,1.40
2022-09-12T12:49:20.716Z,1.70
2022-09-12T12:52:24.405Z,1.70
2022-09-12T12:55:48.839Z,1.80
2022-09-12T12:58:59.377Z,2.63
2022-09-12T13:02:04.787Z,1.63
2022-09-12T13:05:22.627Z,1.70
2022-09-12T13:08:32.821Z,2.00
2022-09-12T13:11:39.785Z,2.45
2022-09-12T13:14:54.469Z,2.43
2022-09-12T13:18:03.134Z,1.70
2022-09-12T13:21:22.256Z,1.40
2022-09-12T13:24:24.701Z,1.40
2022-09-12T13:27:27.006Z,1.42
2022-09-12T13:30:33.055Z,1.43
2022-09-12T13:33:50.261Z,1.30
2022-09-12T13:37:20.288Z,1.05
2022-09-12T13:40:30.578Z,1.30
2022-09-12T13:43:40.669Z,1.10
2022-09-12T13:46:43.136Z,1.40
2022-09-12T13:49:46.847Z,1.38
2022-09-12T13:52:59.660Z,1.38
2022-09-12T13:56:03.735Z,1.27
2022-09-12T13:59:12.799Z,1.70
2022-09-12T14:02:23.974Z,1.50
2022-09-12T14:05:26.834Z,1.50
2022-09-12T14:08:30.250Z,1.38
2022-09-12T14:11:33.904Z,1.27
2022-09-12T14:14:39.881Z,1.55
2022-09-12T14:17:51.975Z,1.70
2022-09-12T14:20:57.449Z,1.60
2022-09-12T14:24:01.327Z,1.73
2022-09-12T14:27:05.019Z,1.58
2022-09-12T14:30:19.873Z,1.87
2022-09-12T14:33:22.350Z,1.80
2022-09-12T14:36:30.575Z,1.98
2022-09-12T14:39:38.020Z,2.05
2022-09-12T14:42:41.176Z,1.88
2022-09-12T14:45:43.702Z,1.95
2022-09-12T14:48:51.455Z,2.00
2022-09-12T14:52:04.826Z,2.00
2022-09-12T14:55:16.770Z,2.33
2022-09-12T14:58:19.064Z,1.98
2022-09-12T15:01:24.403Z,2.00
2022-09-12T15:04:42.112Z,2.00
2022-09-12T15:07:50.721Z,1.88
2022-09-12T15:10:53.263Z,2.58
2022-09-12T15:13:55.596Z,2.47
2022-09-12T15:16:57.917Z,2.40
2022-09-12T15:20:00.399Z,2.00
2022-09-12T15:23:03.312Z,2.10
2022-09-12T15:26:06.782Z,2.10
2022-09-12T15:29:09.104Z,1.90
2022-09-12T15:32:22.491Z,1.73
2022-09-12T15:35:25.727Z,1.97
2022-09-12T15:38:28.220Z,1.90
2022-09-12T15:41:38.180Z,1.80
2022-09-12T15:44:41.193Z,1.80
2022-09-12T15:47:43.702Z,1.90
2022-09-12T15:50:46.170Z,2.00
2022-09-12T15:53:50.392Z,2.00
2022-09-12T15:56:52.877Z,2.03
2022-09-12T15:59:55.451Z,1.83
2022-09-12T16:02:57.830Z,1.93
2022-09-12T16:06:02.612Z,2.00
2022-09-12T16:09:05.191Z,1.95
2022-09-12T16:12:07.647Z,1.80
2022-09-12T16:15:13.959Z,2.22
2022-09-12T16:18:16.873Z,2.35
2022-09-12T16:21:19.316Z,2.00
2022-09-12T16:24:21.849Z,2.20
2022-09-12T16:27:24.256Z,2.10
2022-09-12T16:30:26.584Z,2.00
2022-09-12T16:33:29.710Z,2.13
2022-09-12T16:36:32.118Z,2.07
2022-09-12T16:39:34.803Z,2.10
2022-09-12T16:42:41.810Z,1.75
2022-09-12T16:45:46.744Z,2.22
2022-09-12T16:48:52.866Z,2.20
2022-09-12T16:51:55.597Z,2.10
2022-09-12T16:54:58.045Z,2.15
2022-09-12T16:58:00.648Z,2.50
2022-09-12T17:01:14.130Z,2.13
2022-09-12T17:04:18.754Z,2.73
2022-09-12T17:07:22.964Z,2.40
2022-09-12T17:10:25.932Z,2.70
2022-09-12T17:13:46.566Z,2.25
2022-09-12T17:16:52.188Z,1.90
2022-09-12T17:19:54.692Z,2.30
2022-09-12T17:22:57.035Z,2.33
2022-09-12T17:26:00.245Z,2.20
2022-09-12T17:29:03.172Z,2.65
2022-09-12T17:32:05.607Z,2.53
2022-09-12T17:35:09.007Z,2.40
2022-09-12T17:38:16.774Z,2.70
2022-09-12T17:41:23.023Z,2.50
2022-09-12T17:44:25.447Z,2.50
2022-09-12T17:47:27.928Z,2.17
2022-09-12T17:50:32.914Z,2.07
2022-09-12T17:53:37.592Z,2.93
2022-09-12T17:56:40.430Z,2.40
2022-09-12T17:59:42.853Z,2.50
2022-09-12T18:02:46.731Z,2.30
2022-09-12T18:05:53.301Z,2.40
2022-09-12T18:08:55.705Z,2.50
2022-09-12T18:11:58.618Z,2.35
2022-09-12T18:15:00.964Z,2.05
2022-09-12T18:18:04.171Z,2.33
2022-09-12T18:21:08.306Z,2.50
2022-09-12T18:24:11.526Z,2.97
2022-09-12T18:27:14.138Z,2.72
2022-09-12T18:30:21.443Z,2.80
2022-09-12T18:33:24.423Z,2.63
2022-09-12T18:36:27.459Z,2.60
2022-09-12T18:39:29.853Z,2.60
2022-09-12T18:42:32.623Z,2.92
2022-09-12T18:45:35.650Z,2.78
2022-09-12T18:48:38.511Z,2.40
2022-09-12T18:51:41.856Z,2.77
2022-09-12T18:54:44.265Z,2.80
2022-09-12T18:57:46.959Z,2.90
2022-09-12T19:00:49.790Z,3.40
2022-09-12T19:03:53.231Z,3.30
2022-09-12T19:06:55.816Z,3.50
2022-09-12T19:09:58.222Z,3.47
2022-09-12T19:13:01.790Z,3.25
2022-09-12T19:16:11.645Z,3.83
2022-09-12T19:19:14.390Z,3.55
2022-09-12T19:22:16.771Z,3.40
2022-09-12T19:25:19.211Z,3.93
2022-09-12T19:28:21.755Z,3.33
2022-09-12T19:31:24.944Z,2.97
2022-09-12T19:34:28.062Z,3.65
2022-09-12T19:37:30.583Z,3.70
2022-09-12T19:40:33.198Z,3.63
2022-09-12T19:43:35.578Z,4.15
2022-09-12T19:46:38.209Z,3.90
2022-09-12T19:49:40.637Z,3.75
2022-09-12T19:52:42.988Z,4.03
2022-09-12T19:55:46.074Z,4.30
2022-09-12T19:58:55.719Z,4.20
2022-09-12T20:01:58.797Z,4.10
2022-09-12T20:05:01.644Z,4.55
2022-09-12T20:08:04.124Z,4.40
2022-09-12T20:11:07.583Z,3.97
2022-09-12T20:14:09.959Z,4.43
2022-09-12T20:17:12.424Z,4.07
2022-09-12T20:20:14.863Z,4.13
2022-09-12T20:23:17.201Z,4.23
2022-09-12T20:26:20.487Z,4.27
2022-09-12T20:29:24.219Z,3.97
2022-09-12T20:32:28.344Z,4.00
2022-09-12T20:35:30.771Z,4.05
2022-09-12T20:38:33.848Z,4.03
2022-09-12T20:41:36.398Z,4.37
2022-09-12T20:44:38.684Z,3.88
2022-09-12T20:47:40.984Z,3.97
2022-09-12T20:50:43.347Z,4.30
2022-09-12T20:53:45.772Z,4.50
2022-09-12T20:56:48.139Z,3.77
2022-09-12T20:59:50.625Z,3.65
2022-09-12T21:02:53.108Z,3.67
2022-09-12T21:05:55.459Z,3.80
2022-09-12T21:09:00.907Z,3.90
2022-09-12T21:12:03.399Z,3.87
2022-09-12T21:15:06.113Z,3.72
2022-09-12T21:18:08.824Z,3.70
2022-09-12T21:21:13.278Z,4.03
2022-09-12T21:24:15.693Z,4.20
2022-09-12T21:27:18.318Z,3.97
2022-09-12T21:30:20.853Z,3.78
2022-09-12T21:33:23.720Z,3.92
2022-09-12T21:36:26.131Z,4.00
2022-09-12T21:39:28.739Z,3.23
2022-09-12T21:42:31.784Z,3.60
2022-09-12T21:45:34.248Z,3.30
2022-09-12T21:48:37.387Z,3.80
2022-09-12T21:51:39.723Z,4.03
2022-09-12T21:54:42.153Z,3.77
2022-09-12T21:57:44.560Z,3.33
2022-09-12T22:00:47.162Z,3.72
2022-09-12T22:03:50.069Z,3.47
2022-09-12T22:06:52.527Z,3.80
2022-09-12T22:09:55.175Z,3.40
2022-09-12T22:12:57.549Z,3.93
2022-09-12T22:16:02.978Z,3.60
2022-09-12T22:19:05.936Z,3.80
2022-09-12T22:22:26.882Z,3.53
2022-09-12T22:25:29.410Z,3.40
2022-09-12T22:28:32.670Z,3.67
2022-09-12T22:31:35.113Z,3.50
2022-09-12T22:34:37.435Z,3.45
2022-09-12T22:37:39.900Z,4.07
2022-09-12T22:40:42.269Z,4.20
2022-09-12T22:43:44.983Z,4.20
2022-09-12T22:46:47.525Z,4.20
2022-09-12T22:49:50.155Z,4.60
2022-09-12T22:52:52.823Z,4.40
2022-09-12T22:55:55.204Z,4.00
2022-09-12T22:58:58.557Z,3.90
2022-09-12T23:02:00.938Z,4.05
2022-09-12T23:05:03.889Z,4.50
2022-09-12T23:08:06.232Z,3.63
2022-09-12T23:11:11.131Z,3.73
2022-09-12T23:14:13.461Z,4.00
2022-09-12T23:17:15.810Z,3.80
2022-09-12T23:20:18.376Z,3.78
2022-09-12T23:23:20.688Z,4.18
2022-09-12T23:26:24.959Z,3.87
2022-09-12T23:29:27.424Z,4.33
2022-09-12T23:32:30.002Z,4.45
2022-09-12T23:35:32.389Z,4.40
2022-09-12T23:38:35.687Z,3.92
2022-09-12T23:41:38.206Z,4.30
2022-09-12T23:44:40.534Z,4.53
2022-09-12T23:47:42.942Z,4.10
2022-09-12T23:50:46.586Z,4.10
2022-09-12T23:53:49.410Z,4.13
2022-09-12T23:56:52.193Z,4.07
2022-09-12T23:59:54.494Z,4.40
